createdAt,value
2024-05-09T00:01:21.148Z,9.80
2024-05-09T00:03:52.690Z,9.77
2024-05-09T00:06:25.650Z,9.75
2024-05-09T00:08:56.954Z,9.72
2024-05-09T00:11:28.344Z,9.68
2024-05-09T00:13:59.982Z,9.64
2024-05-09T00:16:31.351Z,9.61
2024-05-09T00:19:03.002Z,9.58
2024-05-09T00:21:34.332Z,9.57
2024-05-09T00:24:06.046Z,9.56
2024-05-09T00:26:37.390Z,9.54
2024-05-09T00:29:08.844Z,9.49
2024-05-09T00:31:40.324Z,9.45
2024-05-09T00:34:11.751Z,9.41
2024-05-09T00:36:43.150Z,9.38
2024-05-09T00:39:14.847Z,9.32
2024-05-09T00:41:46.205Z,9.28
2024-05-09T00:44:17.930Z,9.25
2024-05-09T00:46:54.403Z,9.21
2024-05-09T00:49:27.981Z,9.18
2024-05-09T00:51:59.873Z,9.15
2024-05-09T00:54:31.335Z,9.13
2024-05-09T00:57:02.858Z,9.09
2024-05-09T00:59:34.630Z,9.03
2024-05-09T01:02:06.797Z,8.98
2024-05-09T01:04:38.509Z,8.94
2024-05-09T01:07:11.563Z,8.90
2024-05-09T01:09:43.124Z,8.89
2024-05-09T01:12:14.571Z,8.89
2024-05-09T01:14:46.283Z,8.87
2024-05-09T01:17:17.878Z,8.85
2024-05-09T01:19:49.399Z,8.79
2024-05-09T01:22:23.854Z,8.71
2024-05-09T01:24:55.392Z,8.65
2024-05-09T01:27:26.697Z,8.62
2024-05-09T01:29:58.131Z,8.59
2024-05-09T01:32:29.492Z,8.54
2024-05-09T01:35:01.141Z,8.51
2024-05-09T01:37:32.573Z,8.47
2024-05-09T01:40:07.334Z,8.43
2024-05-09T01:42:40.623Z,8.41
2024-05-09T01:45:12.228Z,8.38
2024-05-09T01:47:43.671Z,8.35
2024-05-09T01:52:47.632Z,8.29
2024-05-09T01:55:19.490Z,8.23
2024-05-09T01:57:50.669Z,8.18
2024-05-09T02:00:33.771Z,8.12
2024-05-09T02:03:14.977Z,8.08
2024-05-09T02:05:49.890Z,8.05
2024-05-09T02:08:22.429Z,8.01
2024-05-09T02:10:54.179Z,7.96
2024-05-09T02:13:25.490Z,7.93
2024-05-09T02:15:57.753Z,7.91
2024-05-09T02:18:29.143Z,7.88
2024-05-09T02:21:00.734Z,7.84
2024-05-09T02:23:32.333Z,7.82
2024-05-09T02:26:03.846Z,7.79
2024-05-09T02:28:35.055Z,7.74
2024-05-09T02:31:06.617Z,7.69
2024-05-09T02:33:38.387Z,7.64
2024-05-09T02:36:10.334Z,7.61
2024-05-09T02:38:41.859Z,7.58
2024-05-09T02:41:13.376Z,7.56
2024-05-09T02:43:44.730Z,7.53
2024-05-09T02:46:16.153Z,7.48
2024-05-09T02:48:47.461Z,7.43
2024-05-09T02:51:19.041Z,7.40
2024-05-09T02:53:50.279Z,7.38
2024-05-09T02:56:21.881Z,7.35
2024-05-09T02:58:53.270Z,7.33
2024-05-09T03:01:24.926Z,7.32
2024-05-09T03:03:56.596Z,7.28
2024-05-09T03:06:28.204Z,7.24
2024-05-09T03:08:59.447Z,7.21
2024-05-09T03:11:30.974Z,7.19
2024-05-09T03:14:02.555Z,7.17
2024-05-09T03:16:39.941Z,7.16
2024-05-09T03:19:11.371Z,7.15
2024-05-09T03:21:42.959Z,7.12
2024-05-09T03:24:14.238Z,7.08
2024-05-09T03:26:45.650Z,7.05
2024-05-09T03:29:17.085Z,7.04
2024-05-09T03:31:48.940Z,7.03
2024-05-09T03:34:20.321Z,7.01
2024-05-09T03:36:51.587Z,6.99
2024-05-09T03:39:22.832Z,7.01
2024-05-09T03:41:54.322Z,7.01
2024-05-09T03:44:25.737Z,7.04
2024-05-09T03:46:57.550Z,7.05
2024-05-09T03:49:28.916Z,7.05
2024-05-09T03:52:05.002Z,7.07
2024-05-09T03:54:37.183Z,7.08
2024-05-09T03:57:08.832Z,7.11
2024-05-09T03:59:40.112Z,7.15
2024-05-09T04:02:11.927Z,7.20
2024-05-09T04:04:45.048Z,7.27
2024-05-09T04:07:16.795Z,7.34
2024-05-09T04:09:48.136Z,7.42
2024-05-09T04:12:19.739Z,7.51
2024-05-09T04:14:50.952Z,7.60
2024-05-09T04:17:22.460Z,7.72
2024-05-09T04:19:53.892Z,7.85
2024-05-09T04:22:25.287Z,7.97
2024-05-09T04:24:56.720Z,8.10
2024-05-09T04:27:30.114Z,8.21
2024-05-09T04:30:01.393Z,8.36
2024-05-09T04:32:33.032Z,8.47
2024-05-09T04:35:04.596Z,8.61
2024-05-09T04:37:36.139Z,8.73
2024-05-09T04:40:17.176Z,8.85
2024-05-09T04:42:55.116Z,8.98
2024-05-09T04:45:26.376Z,9.07
2024-05-09T04:47:58.284Z,9.18
2024-05-09T04:50:36.293Z,9.30
2024-05-09T04:53:11.487Z,9.35
2024-05-09T04:55:43.267Z,9.38
2024-05-09T04:58:15.083Z,9.48
2024-05-09T05:00:46.565Z,9.56
2024-05-09T05:03:18.454Z,9.64
2024-05-09T05:05:50.906Z,9.72
2024-05-09T05:08:22.331Z,9.78
2024-05-09T05:10:53.868Z,9.88
2024-05-09T05:13:25.611Z,9.95
2024-05-09T05:15:58.082Z,10.06
2024-05-09T05:18:30.147Z,10.15
2024-05-09T05:21:01.667Z,10.23
2024-05-09T05:23:33.092Z,10.27
2024-05-09T05:26:04.510Z,10.28
2024-05-09T05:28:36.171Z,10.29
2024-05-09T05:31:07.553Z,10.35
2024-05-09T05:33:39.141Z,10.38
2024-05-09T05:36:12.052Z,10.44
2024-05-09T05:38:43.696Z,10.48
2024-05-09T05:41:15.185Z,10.51
2024-05-09T05:43:46.711Z,10.58
2024-05-09T05:46:18.037Z,10.67
2024-05-09T05:48:49.622Z,10.77
2024-05-09T05:51:21.164Z,10.80
2024-05-09T05:53:52.722Z,10.85
2024-05-09T05:56:24.321Z,10.91
2024-05-09T05:58:55.954Z,11.01
2024-05-09T06:01:27.300Z,11.09
2024-05-09T06:03:59.045Z,11.17
2024-05-09T06:06:30.339Z,11.29
2024-05-09T06:09:01.805Z,11.41
2024-05-09T06:11:33.258Z,11.50
2024-05-09T06:14:05.334Z,11.57
2024-05-09T06:16:36.620Z,11.68
2024-05-09T06:19:08.216Z,11.80
2024-05-09T06:21:39.825Z,11.86
2024-05-09T06:24:11.422Z,11.94
2024-05-09T06:26:46.370Z,11.98
2024-05-09T06:29:17.701Z,12.05
2024-05-09T06:31:49.058Z,12.13
2024-05-09T06:34:21.747Z,12.08
2024-05-09T06:36:53.259Z,12.04
2024-05-09T06:39:25.220Z,12.04
2024-05-09T06:41:56.473Z,12.09
2024-05-09T06:44:28.071Z,12.16
2024-05-09T06:47:00.067Z,12.28
2024-05-09T06:49:32.861Z,12.43
2024-05-09T06:52:04.375Z,12.55
2024-05-09T06:54:35.721Z,12.57
2024-05-09T06:57:07.319Z,12.59
2024-05-09T06:59:38.869Z,12.66
2024-05-09T07:02:10.188Z,12.75
2024-05-09T07:04:41.783Z,12.88
2024-05-09T07:07:13.170Z,13.03
2024-05-09T07:09:44.518Z,13.16
2024-05-09T07:12:15.866Z,13.32
2024-05-09T07:14:47.580Z,13.48
2024-05-09T07:17:20.017Z,13.63
2024-05-09T07:19:52.200Z,13.75
2024-05-09T07:22:25.360Z,13.77
2024-05-09T07:24:56.708Z,13.85
2024-05-09T07:27:27.992Z,13.95
2024-05-09T07:29:59.691Z,14.07
2024-05-09T07:32:31.221Z,14.24
2024-05-09T07:35:03.054Z,14.41
2024-05-09T07:37:34.414Z,14.56
2024-05-09T07:40:07.686Z,14.70
2024-05-09T07:42:39.604Z,14.84
2024-05-09T07:45:29.686Z,14.97
2024-05-09T07:52:32.688Z,15.22
2024-05-09T07:53:39.969Z,15.35
2024-05-09T07:56:18.318Z,15.47
2024-05-09T07:58:52.254Z,15.62
2024-05-09T08:01:25.579Z,15.70
2024-05-09T08:03:57.276Z,15.79
2024-05-09T08:06:29.118Z,15.97
2024-05-09T08:09:05.101Z,16.15
2024-05-09T08:11:39.356Z,16.31
2024-05-09T08:14:10.701Z,16.46
2024-05-09T08:16:42.019Z,16.63
2024-05-09T08:19:13.327Z,16.75
2024-05-09T08:21:44.963Z,16.86
2024-05-09T08:24:16.387Z,16.97
2024-05-09T08:26:47.983Z,17.10
2024-05-09T08:29:19.318Z,17.20
2024-05-09T08:31:55.537Z,17.32
2024-05-09T08:34:26.990Z,17.40
2024-05-09T08:37:03.728Z,17.44
2024-05-09T08:39:41.018Z,17.55
2024-05-09T08:42:14.322Z,17.57
2024-05-09T08:44:48.204Z,17.60
2024-05-09T08:47:18.294Z,17.71
2024-05-09T08:49:51.064Z,17.81
2024-05-09T08:52:22.582Z,17.96
2024-05-09T08:54:54.655Z,18.12
2024-05-09T08:57:27.903Z,18.22
2024-05-09T09:00:06.444Z,18.33
2024-05-09T09:02:42.052Z,18.39
2024-05-09T09:05:17.245Z,18.46
2024-05-09T09:07:51.351Z,18.48
2024-05-09T09:10:29.755Z,18.47
2024-05-09T09:13:05.133Z,18.51
2024-05-09T09:15:36.822Z,18.59
2024-05-09T09:18:11.581Z,18.67
2024-05-09T09:20:43.783Z,18.76
2024-05-09T09:23:15.798Z,18.82
2024-05-09T09:25:47.292Z,18.89
2024-05-09T09:28:18.762Z,18.96
2024-05-09T09:30:50.119Z,19.04
2024-05-09T09:33:21.499Z,19.15
2024-05-09T09:35:53.014Z,19.31
2024-05-09T09:38:25.331Z,19.51
2024-05-09T09:40:56.666Z,19.70
2024-05-09T09:43:28.438Z,19.88
2024-05-09T09:46:00.229Z,20.07
2024-05-09T09:48:32.928Z,20.25
2024-05-09T09:51:05.865Z,20.34
2024-05-09T09:53:38.179Z,20.39
2024-05-09T09:56:11.164Z,20.56
2024-05-09T09:58:44.485Z,20.68
2024-05-09T10:01:16.062Z,20.88
2024-05-09T10:03:50.191Z,21.07
2024-05-09T10:06:22.005Z,21.27
2024-05-09T10:08:53.908Z,21.53
2024-05-09T10:11:25.197Z,21.59
2024-05-09T10:13:57.481Z,21.33
2024-05-09T10:16:32.740Z,21.23
2024-05-09T10:19:04.235Z,21.35
2024-05-09T10:21:35.890Z,21.64
2024-05-09T10:24:08.477Z,21.67
2024-05-09T10:26:40.424Z,21.61
2024-05-09T10:29:15.171Z,21.79
2024-05-09T10:31:47.619Z,22.01
2024-05-09T10:34:23.231Z,22.13
2024-05-09T10:36:55.662Z,21.99
2024-05-09T10:39:27.619Z,21.89
2024-05-09T10:41:58.856Z,21.95
2024-05-09T10:44:30.569Z,22.22
2024-05-09T10:47:01.920Z,22.54
2024-05-09T10:49:33.334Z,22.90
2024-05-09T10:52:06.370Z,23.02
2024-05-09T10:54:41.650Z,22.97
2024-05-09T10:57:12.918Z,23.12
2024-05-09T10:59:45.585Z,23.28
2024-05-09T11:02:18.402Z,23.40
2024-05-09T11:04:50.203Z,23.60
2024-05-09T11:07:22.288Z,23.83
2024-05-09T11:09:55.489Z,24.02
2024-05-09T11:12:26.780Z,24.06
2024-05-09T11:14:58.348Z,23.76
2024-05-09T11:17:37.454Z,23.10
2024-05-09T11:20:16.738Z,22.70
2024-05-09T11:22:51.689Z,22.75
2024-05-09T11:25:23.242Z,23.05
2024-05-09T11:27:54.557Z,23.47
2024-05-09T11:30:31.849Z,23.88
2024-05-09T11:33:04.022Z,24.18
2024-05-09T11:35:35.764Z,24.37
2024-05-09T11:38:07.335Z,24.47
2024-05-09T11:40:39.842Z,24.67
2024-05-09T11:43:11.174Z,25.02
2024-05-09T11:45:42.602Z,25.32
2024-05-09T11:48:14.072Z,25.43
2024-05-09T11:50:45.742Z,25.51
2024-05-09T11:53:16.982Z,25.50
2024-05-09T11:55:50.572Z,25.35
2024-05-09T11:58:23.638Z,25.25
2024-05-09T12:00:55.238Z,25.45
2024-05-09T12:03:26.837Z,25.39
2024-05-09T12:05:58.672Z,25.35
2024-05-09T12:08:30.171Z,25.61
2024-05-09T12:11:01.695Z,25.94
2024-05-09T12:13:33.161Z,26.14
2024-05-09T12:16:04.609Z,26.30
2024-05-09T12:18:36.112Z,26.70
2024-05-09T12:21:08.238Z,26.78
2024-05-09T12:23:40.453Z,26.93
2024-05-09T12:26:12.102Z,27.27
2024-05-09T12:28:43.482Z,27.47
2024-05-09T12:31:15.043Z,27.66
2024-05-09T12:33:46.599Z,27.80
2024-05-09T12:36:18.266Z,27.86
2024-05-09T12:38:50.921Z,28.11
2024-05-09T12:41:22.327Z,28.16
2024-05-09T12:43:53.629Z,27.94
2024-05-09T12:46:25.548Z,27.68
2024-05-09T12:48:57.150Z,27.79
2024-05-09T12:51:28.585Z,28.07
2024-05-09T12:54:00.043Z,27.79
2024-05-09T12:56:33.330Z,27.17
2024-05-09T12:59:04.550Z,27.04
2024-05-09T13:01:36.180Z,27.43
2024-05-09T13:04:08.027Z,27.63
2024-05-09T13:06:39.619Z,27.57
2024-05-09T13:09:11.833Z,27.56
2024-05-09T13:11:43.301Z,27.51
2024-05-09T13:14:14.526Z,27.25
2024-05-09T13:16:46.092Z,26.89
2024-05-09T13:19:17.578Z,26.72
2024-05-09T13:21:49.052Z,26.95
2024-05-09T13:24:20.347Z,27.19
2024-05-09T13:26:51.906Z,27.32
2024-05-09T13:29:23.193Z,27.46
2024-05-09T13:31:54.398Z,27.45
2024-05-09T13:34:25.653Z,27.11
2024-05-09T13:36:57.203Z,26.60
2024-05-09T13:39:28.502Z,26.35
2024-05-09T13:41:59.912Z,26.32
2024-05-09T13:44:31.537Z,26.48
2024-05-09T13:47:03.042Z,26.60
2024-05-09T13:49:34.492Z,26.76
2024-05-09T13:52:06.732Z,27.07
2024-05-09T13:54:38.329Z,27.51
2024-05-09T13:57:09.842Z,27.78
2024-05-09T13:59:41.193Z,27.36
2024-05-09T14:02:12.795Z,26.95
2024-05-09T14:04:44.631Z,27.22
2024-05-09T14:07:16.699Z,27.41
2024-05-09T14:09:48.929Z,27.47
2024-05-09T14:12:20.740Z,27.19
2024-05-09T14:14:52.155Z,27.05
2024-05-09T14:17:23.692Z,27.16
2024-05-09T14:19:55.002Z,27.22
2024-05-09T14:22:26.406Z,27.34
2024-05-09T14:24:57.715Z,27.53
2024-05-09T14:27:29.794Z,27.60
2024-05-09T14:30:01.238Z,27.16
2024-05-09T14:32:32.890Z,26.94
2024-05-09T14:35:04.493Z,26.41
2024-05-09T14:37:37.920Z,25.54
2024-05-09T14:40:25.983Z,25.05
2024-05-09T14:43:03.463Z,25.11
2024-05-09T14:45:35.436Z,25.30
2024-05-09T14:48:08.532Z,25.46
2024-05-09T14:50:40.909Z,25.86
2024-05-09T14:53:13.997Z,25.73
2024-05-09T14:55:45.655Z,25.67
2024-05-09T14:58:17.902Z,25.51
2024-05-09T15:00:51.255Z,25.23
2024-05-09T15:03:23.647Z,25.53
2024-05-09T15:05:55.494Z,25.93
2024-05-09T15:08:27.511Z,26.23
2024-05-09T15:10:59.875Z,26.22
2024-05-09T15:13:31.878Z,26.26
2024-05-09T15:16:03.629Z,26.08
2024-05-09T15:18:35.165Z,26.37
2024-05-09T15:21:07.069Z,26.65
2024-05-09T15:23:38.489Z,26.91
2024-05-09T15:26:10.064Z,26.86
2024-05-09T15:28:42.421Z,26.68
2024-05-09T15:31:13.900Z,26.35
2024-05-09T15:33:45.321Z,26.07
2024-05-09T15:36:16.704Z,26.40
2024-05-09T15:38:48.240Z,26.63
2024-05-09T15:41:19.435Z,26.65
2024-05-09T15:43:50.930Z,26.38
2024-05-09T15:46:22.410Z,25.71
2024-05-09T15:48:54.133Z,25.12
2024-05-09T15:51:25.605Z,24.59
2024-05-09T15:53:57.119Z,24.55
2024-05-09T15:56:28.516Z,24.95
2024-05-09T15:59:00.095Z,25.29
2024-05-09T16:01:31.432Z,25.55
2024-05-09T16:04:03.339Z,25.72
2024-05-09T16:06:35.873Z,25.73
2024-05-09T16:09:07.257Z,25.59
2024-05-09T16:11:38.656Z,25.56
2024-05-09T16:14:10.133Z,25.70
2024-05-09T16:16:41.528Z,25.48
2024-05-09T16:19:13.204Z,25.18
2024-05-09T16:21:44.614Z,25.26
2024-05-09T16:24:16.033Z,25.30
2024-05-09T16:26:47.300Z,25.13
2024-05-09T16:29:18.667Z,24.71
2024-05-09T16:31:50.045Z,24.17
2024-05-09T16:34:21.438Z,23.83
2024-05-09T16:36:52.999Z,23.48
2024-05-09T16:39:24.294Z,23.11
2024-05-09T16:41:56.329Z,23.01
2024-05-09T16:44:27.774Z,23.00
2024-05-09T16:46:59.152Z,23.12
2024-05-09T16:49:30.839Z,23.25
2024-05-09T16:52:02.463Z,23.30
2024-05-09T16:54:33.934Z,23.32
2024-05-09T16:57:05.665Z,23.20
2024-05-09T16:59:37.147Z,23.01
2024-05-09T17:02:09.596Z,22.78
2024-05-09T17:04:41.393Z,22.45
2024-05-09T17:07:13.293Z,22.18
2024-05-09T17:09:45.247Z,21.91
2024-05-09T17:12:16.581Z,21.60
2024-05-09T17:14:47.995Z,21.34
2024-05-09T17:17:19.812Z,21.07
2024-05-09T17:19:51.459Z,20.76
2024-05-09T17:22:22.838Z,20.47
2024-05-09T17:24:54.426Z,20.29
2024-05-09T17:27:25.818Z,20.12
2024-05-09T17:29:57.391Z,19.96
2024-05-09T17:32:28.744Z,19.85
2024-05-09T17:35:00.651Z,19.75
2024-05-09T17:37:32.325Z,19.65
2024-05-09T17:40:06.787Z,19.56
2024-05-09T17:42:43.057Z,19.43
2024-05-09T17:45:15.096Z,19.30
2024-05-09T17:47:47.458Z,19.19
2024-05-09T17:50:27.273Z,19.08
2024-05-09T17:53:05.400Z,18.94
2024-05-09T17:55:37.488Z,18.83
2024-05-09T17:58:09.060Z,18.75
2024-05-09T18:00:42.402Z,18.67
2024-05-09T18:03:15.133Z,18.59
2024-05-09T18:05:47.789Z,18.51
2024-05-09T18:08:19.399Z,18.43
2024-05-09T18:10:52.021Z,18.37
2024-05-09T18:13:24.283Z,18.27
2024-05-09T18:15:56.015Z,18.17
2024-05-09T18:18:27.485Z,18.07
2024-05-09T18:20:59.063Z,17.96
2024-05-09T18:23:31.107Z,17.84
2024-05-09T18:26:03.244Z,17.73
2024-05-09T18:28:34.481Z,17.63
2024-05-09T18:31:06.241Z,17.55
2024-05-09T18:33:38.034Z,17.46
2024-05-09T18:36:10.573Z,17.39
2024-05-09T18:38:42.895Z,17.32
2024-05-09T18:41:14.609Z,17.25
2024-05-09T18:43:50.186Z,17.19
2024-05-09T18:46:22.440Z,17.12
2024-05-09T18:48:54.036Z,17.06
2024-05-09T18:51:26.220Z,17.00
2024-05-09T18:53:57.549Z,16.93
2024-05-09T18:56:29.050Z,16.84
2024-05-09T18:59:00.380Z,16.73
2024-05-09T19:01:32.253Z,16.65
2024-05-09T19:04:03.804Z,16.57
2024-05-09T19:06:37.622Z,16.49
2024-05-09T19:09:08.992Z,16.43
2024-05-09T19:11:40.816Z,16.39
2024-05-09T19:14:12.317Z,16.35
2024-05-09T19:16:44.299Z,16.32
2024-05-09T19:19:16.559Z,16.28
2024-05-09T19:21:48.530Z,16.23
2024-05-09T19:24:19.872Z,16.19
2024-05-09T19:26:51.318Z,16.12
2024-05-09T19:29:22.623Z,16.06
2024-05-09T19:31:54.220Z,15.99
2024-05-09T19:34:25.566Z,15.91
2024-05-09T19:36:57.226Z,15.83
2024-05-09T19:39:28.547Z,15.77
2024-05-09T19:42:00.067Z,15.71
2024-05-09T19:44:31.454Z,15.67
2024-05-09T19:47:02.757Z,15.63
2024-05-09T19:49:34.186Z,15.58
2024-05-09T19:52:06.234Z,15.52
2024-05-09T19:54:37.645Z,15.46
2024-05-09T19:57:09.132Z,15.41
2024-05-09T19:59:40.422Z,15.35
2024-05-09T20:02:12.105Z,15.29
2024-05-09T20:04:45.717Z,15.23
2024-05-09T20:07:17.318Z,15.16
2024-05-09T20:09:48.650Z,15.09
2024-05-09T20:12:20.218Z,15.02
2024-05-09T20:14:51.496Z,14.96
2024-05-09T20:17:22.951Z,14.90
2024-05-09T20:19:54.479Z,14.82
2024-05-09T20:22:26.084Z,14.76
2024-05-09T20:24:57.416Z,14.69
2024-05-09T20:27:29.064Z,14.63
2024-05-09T20:30:00.448Z,14.57
2024-05-09T20:32:32.283Z,14.52
2024-05-09T20:35:04.144Z,14.45
2024-05-09T20:37:35.452Z,14.40
2024-05-09T20:40:12.248Z,14.34
2024-05-09T20:42:47.805Z,14.25
2024-05-09T20:45:19.079Z,14.14
2024-05-09T20:47:51.781Z,14.06
2024-05-09T20:50:32.030Z,14.02
2024-05-09T20:53:10.504Z,13.96
2024-05-09T20:55:41.884Z,13.89
2024-05-09T20:58:14.134Z,13.83
2024-05-09T21:00:46.555Z,13.79
2024-05-09T21:03:20.297Z,13.73
2024-05-09T21:05:51.845Z,13.66
2024-05-09T21:08:23.902Z,13.57
2024-05-09T21:10:55.442Z,13.49
2024-05-09T21:13:27.363Z,13.39
2024-05-09T21:15:58.888Z,13.29
2024-05-09T21:18:30.754Z,13.21
2024-05-09T21:21:02.308Z,13.13
2024-05-09T21:23:33.606Z,13.05
2024-05-09T21:26:04.881Z,12.98
2024-05-09T21:28:36.424Z,12.92
2024-05-09T21:31:08.926Z,12.86
2024-05-09T21:33:40.512Z,12.81
2024-05-09T21:36:12.518Z,12.77
2024-05-09T21:38:43.885Z,12.72
2024-05-09T21:41:15.174Z,12.68
2024-05-09T21:43:46.765Z,12.63
2024-05-09T21:46:18.083Z,12.54
2024-05-09T21:48:49.779Z,12.42
2024-05-09T21:51:21.186Z,12.35
2024-05-09T21:53:52.521Z,12.30
2024-05-09T21:56:23.839Z,12.26
2024-05-09T21:58:55.568Z,12.23
2024-05-09T22:01:26.993Z,12.19
2024-05-09T22:06:53.436Z,12.10
2024-05-09T22:09:24.677Z,12.05
2024-05-09T22:11:57.689Z,12.00
2024-05-09T22:14:29.399Z,11.93
2024-05-09T22:17:00.893Z,11.85
2024-05-09T22:19:33.065Z,11.82
2024-05-09T22:22:04.671Z,11.78
2024-05-09T22:24:36.214Z,11.73
2024-05-09T22:27:08.713Z,11.70
2024-05-09T22:29:40.467Z,11.69
2024-05-09T22:32:11.652Z,11.68
2024-05-09T22:34:43.071Z,11.65
2024-05-09T22:37:14.606Z,11.62
2024-05-09T22:39:46.190Z,11.54
2024-05-09T22:42:18.676Z,11.49
2024-05-09T22:44:49.900Z,11.46
2024-05-09T22:47:21.275Z,11.45
2024-05-09T22:49:52.727Z,11.44
2024-05-09T22:52:24.217Z,11.41
2024-05-09T22:54:55.807Z,11.38
2024-05-09T22:57:27.127Z,11.35
2024-05-09T22:59:58.618Z,11.31
2024-05-09T23:02:30.101Z,11.27
2024-05-09T23:05:01.892Z,11.21
2024-05-09T23:07:33.321Z,11.15
2024-05-09T23:10:10.845Z,11.12
2024-05-09T23:12:44.676Z,11.10
2024-05-09T23:15:16.139Z,11.09
2024-05-09T23:17:47.527Z,11.07
2024-05-09T23:20:29.855Z,11.04
2024-05-09T23:23:08.343Z,11.01
2024-05-09T23:25:41.068Z,10.97
2024-05-09T23:28:13.266Z,10.93
2024-05-09T23:30:44.936Z,10.91
2024-05-09T23:33:16.456Z,10.88
2024-05-09T23:35:48.164Z,10.87
2024-05-09T23:38:22.490Z,10.84
2024-05-09T23:40:55.248Z,10.82
2024-05-09T23:43:26.710Z,10.78
2024-05-09T23:45:58.383Z,10.77
2024-05-09T23:48:29.790Z,10.75
2024-05-09T23:51:01.289Z,10.71
2024-05-09T23:53:32.601Z,10.70
2024-05-09T23:56:03.939Z,10.66
2024-05-09T23:58:35.228Z,10.61
